Terminal Aerodrome Forecast
Issued by NWS

Home | Current Version | Previous Version | Graphics & Text | Print | Product List | Glossary On
Versions: 1 2 3 4 5 6 7 8 9 10 11 12 13 14 15 16 17 18 19 20 21
748
FTUS43 KBIS 150429 AAA
TAFDIK
TAF AMD
KDIK 150429Z 1504/1524 30014KT P6SM BKN018
     FM150600 34016KT 3SM -SN OVC012
      TEMPO 1506/1510 1SM -SN BR OVC008
     FM151000 36018KT 3SM -SN BR OVC012
     FM151600 34015KT P6SM OVC018
     FM151900 31014KT P6SM SCT020 BKN150=

USA.gov is the U.S. government's official web portal to all federal, state and local government web resources and services.